Time;durP1;ratioP1;P1;durP2;ratioP2;P2;SDS_P1;SDS_P2;PMS_P1;PMS_P2;Temp;Humidity;BMP_temperature;BMP_pressure;BME280_temperature;BME280_humidity;BME280_pressure;Samples;Min_cycle;Max_cycle;Signal;HPM_P1;HPM_P2
2023/05/22 00:00:53;;;;;;;17.13;12.90;;;;;;;13.42;100.00;101783.09;4953382;29;20186;-49
2023/05/22 00:03:19;;;;;;;15.15;12.30;;;;;;;13.44;100.00;101783.94;4952769;29;20193;-50
2023/05/22 00:05:47;;;;;;;17.45;12.90;;;;;;;13.31;100.00;101781.66;4953534;29;20175;-50
2023/05/22 00:08:12;;;;;;;17.25;12.13;;;;;;;13.24;100.00;101776.53;4953728;29;20265;-50
2023/05/22 00:10:38;;;;;;;15.77;11.52;;;;;;;13.31;100.00;101772.72;4951869;29;20305;-49
2023/05/22 00:13:04;;;;;;;16.88;12.88;;;;;;;13.20;100.00;101773.91;4952945;29;20213;-50
2023/05/22 00:15:30;;;;;;;15.93;12.65;;;;;;;13.10;100.00;101775.19;4953083;28;20309;-51
2023/05/22 00:17:56;;;;;;;14.13;12.63;;;;;;;13.13;100.00;101780.44;4952754;29;20273;-51
2023/05/22 00:20:22;;;;;;;16.58;13.15;;;;;;;13.10;100.00;101774.31;4953297;29;20626;-51
2023/05/22 00:22:48;;;;;;;15.75;11.93;;;;;;;13.15;100.00;101769.63;4950585;29;20277;-50
2023/05/22 00:25:17;;;;;;;17.20;12.82;;;;;;;13.22;100.00;101762.25;4952358;28;20206;-52
2023/05/22 00:27:43;;;;;;;19.42;12.90;;;;;;;13.10;100.00;101774.31;4934621;29;20294;-52
2023/05/22 00:30:09;;;;;;;18.15;13.20;;;;;;;13.09;100.00;101764.47;4952491;28;20289;-49
2023/05/22 00:32:35;;;;;;;16.65;12.40;;;;;;;12.92;100.00;101771.31;4948280;29;20198;-49
2023/05/22 00:35:00;;;;;;;20.48;11.93;;;;;;;12.99;100.00;101761.22;4935320;29;20202;-52
2023/05/22 00:37:26;;;;;;;16.17;13.15;;;;;;;12.86;100.00;101768.81;4952977;29;20541;-50
2023/05/22 00:39:51;;;;;;;16.15;11.65;;;;;;;13.01;100.00;101763.84;4952908;29;20215;-50
2023/05/22 00:42:17;;;;;;;13.63;11.90;;;;;;;12.98;100.00;101756.75;4951099;29;20198;-48
2023/05/22 00:44:43;;;;;;;12.75;11.05;;;;;;;12.99;100.00;101761.22;4952373;28;20290;-52
2023/05/22 00:47:08;;;;;;;12.63;10.95;;;;;;;13.04;100.00;101769.13;4952563;29;20191;-50
2023/05/22 00:49:34;;;;;;;14.23;11.85;;;;;;;12.94;100.00;101769.44;4933579;29;20206;-49
2023/05/22 00:52:00;;;;;;;14.32;12.80;;;;;;;12.89;100.00;101774.06;4952560;29;20577;-51
2023/05/22 00:54:26;;;;;;;21.30;13.65;;;;;;;12.82;100.00;101763.59;4933129;29;20230;-49
2023/05/22 00:56:52;;;;;;;13.82;12.38;;;;;;;12.58;100.00;101758.06;4933514;29;20178;-50
2023/05/22 00:59:18;;;;;;;14.40;11.43;;;;;;;12.70;100.00;101763.06;4935155;29;20241;-50
2023/05/22 01:01:43;;;;;;;20.15;13.32;;;;;;;12.66;100.00;101763.16;4950380;29;20202;-50
2023/05/22 01:04:11;;;;;;;16.90;13.93;;;;;;;12.68;100.00;101761.31;4951478;29;20202;-53
2023/05/22 01:06:37;;;;;;;18.40;12.90;;;;;;;12.67;100.00;101763.13;4952174;29;20183;-50
2023/05/22 01:09:03;;;;;;;14.90;11.18;;;;;;;12.70;100.00;101764.84;4952533;29;20269;-50
2023/05/22 01:11:32;;;;;;;16.35;13.55;;;;;;;12.64;100.00;101765.03;4928828;28;20737;-49
2023/05/22 01:14:28;;;;;;;19.90;13.25;;;;;;;12.69;100.00;101766.66;4950235;28;20689;-50
2023/05/22 01:17:23;;;;;;;18.80;14.25;;;;;;;12.65;100.00;101762.31;4951760;29;20224;-51
2023/05/22 01:20:06;;;;;;;18.05;15.15;;;;;;;12.50;100.00;101765.47;4951419;29;20404;-53
2023/05/22 01:22:57;;;;;;;16.45;12.00;;;;;;;12.61;100.00;101763.31;4949945;29;20193;-52
2023/05/22 01:25:25;;;;;;;12.70;10.98;;;;;;;12.61;100.00;101768.69;4949839;29;20221;-52
2023/05/22 01:28:12;;;;;;;15.70;12.45;;;;;;;12.58;100.00;101761.63;4951851;29;20533;-53
2023/05/22 01:30:46;;;;;;;15.98;11.98;;;;;;;12.64;100.00;101747.13;4933998;29;20218;-49
2023/05/22 01:33:15;;;;;;;15.50;12.70;;;;;;;12.59;100.00;101746.34;4932449;29;20199;-50
2023/05/22 01:35:45;;;;;;;17.52;13.57;;;;;;;12.48;100.00;101748.50;4949289;29;20178;-51
2023/05/22 01:38:12;;;;;;;18.08;13.93;;;;;;;12.44;100.00;101746.84;4950325;29;20178;-50
2023/05/22 01:40:38;;;;;;;19.10;13.60;;;;;;;12.48;100.00;101753.88;4934406;29;20182;-51
2023/05/22 01:43:04;;;;;;;14.10;12.43;;;;;;;12.46;100.00;101747.69;4950209;28;20439;-47
2023/05/22 01:45:30;;;;;;;14.48;12.60;;;;;;;12.43;100.00;101748.66;4951942;29;20207;-48
2023/05/22 01:47:57;;;;;;;18.15;12.43;;;;;;;12.47;100.00;101750.31;4934802;29;20186;-45
2023/05/22 01:50:23;;;;;;;16.15;11.45;;;;;;;12.48;100.00;101740.44;4934939;29;20202;-47
2023/05/22 01:52:59;;;;;;;18.73;13.35;;;;;;;12.35;100.00;101737.25;4951812;29;20201;-46
2023/05/22 01:55:34;;;;;;;17.63;13.60;;;;;;;12.29;100.00;101743.72;4927666;29;20210;-45
2023/05/22 01:58:41;;;;;;;17.52;14.07;;;;;;;12.29;100.00;101737.47;4932363;29;20186;-48
2023/05/22 02:01:12;;;;;;;17.08;13.55;;;;;;;12.28;100.00;101733.88;4947878;29;20191;-47
2023/05/22 02:03:39;;;;;;;14.43;12.57;;;;;;;12.27;100.00;101740.19;4951846;28;20203;-47
2023/05/22 02:06:08;;;;;;;18.98;14.82;;;;;;;12.14;100.00;101742.38;4951906;29;20269;-47
2023/05/22 02:08:40;;;;;;;18.90;13.27;;;;;;;12.30;100.00;101741.91;4948903;29;20537;-48
2023/05/22 02:11:09;;;;;;;14.70;13.15;;;;;;;12.25;100.00;101747.44;4934619;29;20249;-46
2023/05/22 02:13:36;;;;;;;18.80;13.77;;;;;;;12.19;100.00;101739.53;4934094;29;20254;-48
2023/05/22 02:16:02;;;;;;;17.48;13.27;;;;;;;12.20;100.00;101730.56;4934972;29;20697;-47
2023/05/22 02:18:29;;;;;;;17.42;14.48;;;;;;;12.20;100.00;101730.56;4934517;29;20175;-45
2023/05/22 02:20:57;;;;;;;15.32;13.35;;;;;;;12.13;100.00;101737.03;4934730;29;20197;-47
2023/05/22 02:23:23;;;;;;;14.65;12.88;;;;;;;12.20;100.00;101740.41;4950643;29;20183;-48
2023/05/22 02:25:48;;;;;;;16.67;13.38;;;;;;;12.26;100.00;101732.19;4951668;29;20193;-46
2023/05/22 02:28:14;;;;;;;15.80;12.18;;;;;;;12.27;100.00;101733.94;4934507;29;20179;-45
2023/05/22 02:30:40;;;;;;;14.40;12.13;;;;;;;12.27;100.00;101731.28;4934210;29;20194;-46
2023/05/22 02:33:05;;;;;;;15.70;13.57;;;;;;;12.22;100.00;101728.69;4934049;29;20190;-47
2023/05/22 02:35:31;;;;;;;13.55;11.52;;;;;;;12.25;100.00;101725.94;4948493;29;20230;-48
2023/05/22 02:37:57;;;;;;;13.82;11.20;;;;;;;12.27;100.00;101732.13;4934335;29;20186;-46
2023/05/22 02:40:22;;;;;;;14.32;12.52;;;;;;;12.27;100.00;101724.06;4951396;29;20171;-46
2023/05/22 02:42:48;;;;;;;18.40;13.75;;;;;;;12.21;100.00;101729.63;4933966;29;20170;-46
2023/05/22 02:45:16;;;;;;;19.95;13.35;;;;;;;12.13;100.00;101719.13;4934332;29;20268;-46
2023/05/22 02:47:44;;;;;;;19.33;13.93;;;;;;;12.01;100.00;101724.00;4934496;29;20548;-47
2023/05/22 02:50:10;;;;;;;15.57;13.48;;;;;;;12.07;100.00;101711.25;4951448;29;20248;-45
2023/05/22 02:52:38;;;;;;;17.85;14.48;;;;;;;12.01;100.00;101714.13;4947953;29;20183;-46
2023/05/22 02:55:04;;;;;;;17.75;13.10;;;;;;;12.04;100.00;101702.41;4951991;28;20198;-46
2023/05/22 02:57:29;;;;;;;15.93;12.32;;;;;;;12.14;100.00;101704.75;4937751;29;20191;-48
2023/05/22 02:59:58;;;;;;;15.65;14.00;;;;;;;12.09;100.00;101689.69;4955469;29;20242;-47
2023/05/22 03:02:27;;;;;;;15.80;14.13;;;;;;;12.03;100.00;101698.84;4954632;29;20233;-47
2023/05/22 03:04:53;;;;;;;16.30;13.85;;;;;;;12.02;100.00;101693.50;4935017;29;20199;-47
2023/05/22 03:07:20;;;;;;;17.13;14.43;;;;;;;12.05;100.00;101688.06;4937781;29;20205;-45
2023/05/22 03:09:46;;;;;;;15.88;13.70;;;;;;;12.05;100.00;101688.06;4954543;29;20198;-48
2023/05/22 03:12:11;;;;;;;19.33;14.75;;;;;;;11.98;100.00;101678.41;4954290;29;20194;-47
2023/05/22 03:14:37;;;;;;;18.65;14.73;;;;;;;11.98;100.00;101681.97;4954656;29;20216;-47
2023/05/22 03:17:02;;;;;;;17.52;14.40;;;;;;;11.95;100.00;101676.72;4937162;29;20186;-45
2023/05/22 03:19:28;;;;;;;18.08;14.50;;;;;;;11.99;100.00;101678.38;4934472;29;20553;-46
2023/05/22 03:21:53;;;;;;;15.25;13.43;;;;;;;12.04;100.00;101679.09;4952405;29;20179;-48
2023/05/22 03:24:20;;;;;;;18.02;14.35;;;;;;;12.02;100.00;101674.72;4937096;29;20232;-48
2023/05/22 03:26:46;;;;;;;18.70;14.80;;;;;;;11.97;100.00;101680.22;4954515;29;20211;-47
2023/05/22 03:29:17;;;;;;;16.67;13.45;;;;;;;12.01;100.00;101686.41;4937065;29;20237;-48
2023/05/22 03:31:43;;;;;;;16.42;13.23;;;;;;;11.98;100.00;101675.72;4929805;29;20595;-47
2023/05/22 03:34:12;;;;;;;21.25;14.68;;;;;;;11.99;100.00;101682.88;4937016;29;20207;-47
2023/05/22 03:36:40;;;;;;;18.85;14.32;;;;;;;11.93;100.00;101691.97;4934489;29;20182;-44
2023/05/22 03:39:05;;;;;;;22.35;15.73;;;;;;;11.89;100.00;101690.31;4937157;29;20187;-45
2023/05/22 03:41:35;;;;;;;19.33;14.00;;;;;;;12.05;100.00;101682.69;4936741;29;20185;-44
2023/05/22 03:44:02;;;;;;;17.02;14.15;;;;;;;11.97;100.00;101695.47;4936848;29;20206;-43
2023/05/22 03:46:27;;;;;;;13.80;12.35;;;;;;;11.96;100.00;101689.22;4937016;29;20233;-45
2023/05/22 03:48:53;;;;;;;15.60;13.18;;;;;;;12.00;100.00;101690.00;4936903;29;20486;-43
2023/05/22 03:51:19;;;;;;;19.35;14.43;;;;;;;11.92;100.00;101680.38;4953618;29;20187;-43
2023/05/22 03:53:44;;;;;;;16.98;14.02;;;;;;;11.93;100.00;101676.75;4936798;29;20242;-45
2023/05/22 03:56:10;;;;;;;18.48;13.57;;;;;;;11.94;100.00;101678.53;4953804;29;20187;-42
2023/05/22 03:58:35;;;;;;;15.95;13.93;;;;;;;12.00;100.00;101681.94;4934292;29;20178;-42
2023/05/22 04:01:01;;;;;;;16.90;13.10;;;;;;;11.95;100.00;101682.94;4936383;29;20653;-44
2023/05/22 04:03:27;;;;;;;15.60;13.27;;;;;;;11.96;100.00;101686.53;4953529;29;20179;-42
2023/05/22 04:05:52;;;;;;;15.77;12.43;;;;;;;11.99;100.00;101682.88;4953440;28;20657;-43
2023/05/22 04:08:18;;;;;;;14.70;12.30;;;;;;;12.06;100.00;101685.31;4936556;29;20170;-43
2023/05/22 04:10:47;;;;;;;19.23;13.35;;;;;;;12.07;100.00;101686.19;4952470;28;20190;-43
2023/05/22 04:13:13;;;;;;;17.52;13.10;;;;;;;12.09;100.00;101682.56;4951251;29;20194;-42
2023/05/22 04:15:45;;;;;;;14.90;11.02;;;;;;;12.24;100.00;101689.22;4936900;29;20536;-42
2023/05/22 04:18:12;;;;;;;13.82;10.77;;;;;;;12.23;100.00;101679.41;4953657;29;20182;-45
2023/05/22 04:20:38;;;;;;;21.58;11.48;;;;;;;12.15;100.00;101671.59;4936350;29;20225;-43
2023/05/22 04:23:03;;;;;;;16.95;12.13;;;;;;;12.18;100.00;101669.72;4951559;29;20190;-42
2023/05/22 04:25:30;;;;;;;13.68;11.00;;;;;;;12.22;100.00;101668.72;4953539;28;20693;-42
2023/05/22 04:27:58;;;;;;;20.33;11.25;;;;;;;12.27;100.00;101678.41;4935992;29;20195;-43
2023/05/22 04:30:25;;;;;;;14.63;10.85;;;;;;;12.31;100.00;101677.38;4953710;29;20541;-43
2023/05/22 04:32:51;;;;;;;14.07;11.00;;;;;;;12.30;100.00;101666.66;4934002;29;20183;-43
2023/05/22 04:35:17;;;;;;;19.92;12.30;;;;;;;12.25;100.00;101672.19;4951788;29;20214;-44
2023/05/22 04:37:44;;;;;;;16.88;11.25;;;;;;;12.35;100.00;101670.06;4932090;29;20655;-43
2023/05/22 04:40:11;;;;;;;16.55;10.93;;;;;;;12.43;100.00;101672.53;4953757;29;20546;-42
2023/05/22 04:42:38;;;;;;;13.93;10.48;;;;;;;12.46;100.00;101675.09;4949490;29;20218;-42
2023/05/22 04:45:04;;;;;;;17.60;10.27;;;;;;;12.55;100.00;101674.81;4953049;29;20582;-42
2023/05/22 04:47:33;;;;;;;13.63;10.13;;;;;;;12.63;100.00;101666.50;4935830;29;20206;-44
2023/05/22 04:50:04;;;;;;;11.23;9.50;;;;;;;12.64;100.00;101669.16;4950750;29;20191;-43
2023/05/22 04:52:30;;;;;;;14.35;10.27;;;;;;;12.70;100.00;101668.03;4935689;29;20220;-43
2023/05/22 04:54:55;;;;;;;17.88;10.40;;;;;;;12.73;100.00;101673.34;4952743;29;20282;-44
2023/05/22 04:57:24;;;;;;;15.88;10.82;;;;;;;12.79;100.00;101667.75;4953039;29;20709;-42
2023/05/22 04:59:51;;;;;;;12.15;10.02;;;;;;;12.71;100.00;101673.38;4935681;29;20652;-42
2023/05/22 05:02:17;;;;;;;12.88;9.23;;;;;;;12.92;100.00;101676.25;4935400;29;20222;-41
2023/05/22 05:04:42;;;;;;;14.73;10.23;;;;;;;12.93;100.00;101662.75;4931473;29;20200;-42
2023/05/22 05:07:08;;;;;;;14.40;10.02;;;;;;;13.15;100.00;101670.94;4933072;29;20752;-43
2023/05/22 05:09:34;;;;;;;14.23;8.55;;;;;;;13.30;100.00;101666.88;4933118;29;20186;-43
2023/05/22 05:12:01;;;;;;;13.20;9.10;;;;;;;13.29;100.00;101666.91;4934709;29;20174;-41
2023/05/22 05:14:27;;;;;;;13.98;9.30;;;;;;;13.38;100.00;101658.50;4948759;29;20213;-43
2023/05/22 05:16:53;;;;;;;15.60;9.30;;;;;;;13.42;100.00;101662.84;4952167;28;20191;-44
2023/05/22 05:19:22;;;;;;;12.60;8.75;;;;;;;13.56;100.00;101665.91;4952543;29;20218;-42
2023/05/22 05:21:48;;;;;;;14.85;8.07;;;;;;;13.56;100.00;101659.66;4931431;29;20175;-43
2023/05/22 05:24:17;;;;;;;11.90;8.68;;;;;;;13.64;100.00;101649.47;4934405;29;20218;-43
2023/05/22 05:26:43;;;;;;;15.00;8.73;;;;;;;13.73;100.00;101649.13;4934900;29;20189;-44
2023/05/22 05:29:10;;;;;;;13.18;8.60;;;;;;;13.88;100.00;101644.94;4935102;29;20183;-43
2023/05/22 05:31:46;;;;;;;10.23;7.82;;;;;;;14.03;100.00;101648.84;4917346;29;20190;-43
2023/05/22 05:34:18;;;;;;;9.95;7.55;;;;;;;14.08;100.00;101646.88;4934580;29;20294;-42
2023/05/22 05:37:04;;;;;;;11.90;8.20;;;;;;;14.27;100.00;101641.59;4948478;29;20341;-44
2023/05/22 05:39:30;;;;;;;13.75;7.72;;;;;;;14.29;100.00;101638.84;4933708;29;20216;-43
2023/05/22 05:41:56;;;;;;;11.23;7.50;;;;;;;14.50;100.00;101635.28;4932647;29;20179;-43
2023/05/22 05:44:22;;;;;;;12.93;8.25;;;;;;;14.57;100.00;101638.63;4933814;29;20229;-44
2023/05/22 05:46:48;;;;;;;11.98;7.47;;;;;;;14.75;100.00;101645.94;4934106;29;20190;-44
2023/05/22 05:49:18;;;;;;;8.90;7.15;;;;;;;14.91;100.00;101638.06;4933811;29;20607;-44
2023/05/22 05:51:44;;;;;;;12.07;7.38;;;;;;;15.09;100.00;101632.81;4932986;29;20273;-44
2023/05/22 05:54:10;;;;;;;9.73;7.13;;;;;;;15.19;100.00;101629.59;4934157;29;20210;-43
2023/05/22 05:56:36;;;;;;;14.63;7.13;;;;;;;15.17;100.00;101638.72;4919068;29;20189;-43
2023/05/22 05:59:04;;;;;;;11.63;7.60;;;;;;;15.54;100.00;101646.03;4934595;29;20193;-43
2023/05/22 06:01:49;;;;;;;13.82;6.47;;;;;;;15.82;100.00;101636.69;4950930;29;20266;-42
2023/05/22 06:04:22;;;;;;;9.02;6.70;;;;;;;16.18;100.00;101642.16;4933700;29;20564;-43
2023/05/22 06:06:50;;;;;;;7.07;5.55;;;;;;;16.46;100.00;101640.78;4951969;29;20476;-42
2023/05/22 06:09:39;;;;;;;6.65;5.03;;;;;;;16.76;100.00;101622.13;4942637;29;20214;-43
2023/05/22 06:12:12;;;;;;;10.70;5.55;;;;;;;16.87;98.17;101627.88;4934139;29;20185;-43
2023/05/22 06:14:40;;;;;;;8.85;5.50;;;;;;;16.87;95.84;101614.34;4933766;29;20229;-42
2023/05/22 06:17:08;;;;;;;7.70;5.80;;;;;;;17.02;94.23;101611.81;4951329;29;20182;-43
2023/05/22 06:19:35;;;;;;;8.35;5.63;;;;;;;17.24;93.05;101616.97;4934360;29;20254;-39
2023/05/22 06:22:00;;;;;;;7.63;4.97;;;;;;;16.97;92.47;101609.34;4933971;29;20183;-42
2023/05/22 06:24:28;;;;;;;6.55;5.05;;;;;;;17.20;91.77;101610.81;4933761;29;20199;-41
2023/05/22 06:26:54;;;;;;;6.30;4.50;;;;;;;17.39;90.72;101610.72;4934076;29;20194;-40
2023/05/22 06:29:20;;;;;;;8.93;5.10;;;;;;;17.44;89.11;101596.91;4932151;29;20533;-43
2023/05/22 06:31:46;;;;;;;7.40;4.65;;;;;;;17.81;88.54;101597.59;4934166;29;20650;-42
2023/05/22 06:34:14;;;;;;;7.97;4.85;;;;;;;18.07;86.73;101596.13;4932569;29;20613;-42
2023/05/22 06:36:41;;;;;;;5.00;4.15;;;;;;;18.21;86.04;101588.06;4931774;29;20237;-41
2023/05/22 06:39:07;;;;;;;7.40;4.80;;;;;;;18.39;83.73;101591.56;4950104;29;20201;-42
2023/05/22 06:41:58;;;;;;;6.47;4.60;;;;;;;18.58;82.80;101580.47;4949366;29;20195;-42
2023/05/22 06:44:24;;;;;;;10.57;4.70;;;;;;;18.96;82.26;101580.03;4933185;29;20242;-42
2023/05/22 06:46:53;;;;;;;6.13;4.80;;;;;;;18.92;81.38;101583.91;4950756;29;20298;-42
2023/05/22 06:49:22;;;;;;;8.38;4.85;;;;;;;19.18;78.85;101573.25;4930653;29;20172;-40
2023/05/22 06:51:51;;;;;;;6.75;4.72;;;;;;;19.11;77.96;101575.47;4931599;29;20241;-43
2023/05/22 06:54:18;;;;;;;5.65;4.00;;;;;;;19.18;77.23;101568.69;4931413;29;20206;-41
2023/05/22 06:56:46;;;;;;;11.77;5.05;;;;;;;19.38;75.62;101559.28;4933492;29;20269;-42
2023/05/22 06:59:15;;;;;;;7.93;4.43;;;;;;;19.30;75.94;101562.47;4933831;29;20277;-42
2023/05/22 07:02:00;;;;;;;6.60;3.95;;;;;;;19.76;75.10;101564.97;4950614;29;20197;-43
2023/05/22 07:04:44;;;;;;;5.95;4.50;;;;;;;20.13;75.27;101559.84;4950931;29;20257;-46
2023/05/22 07:07:12;;;;;;;4.28;3.65;;;;;;;20.28;73.36;101557.06;4929891;29;20175;-46
2023/05/22 07:09:38;;;;;;;5.75;3.85;;;;;;;20.40;71.89;101553.53;4933709;29;20672;-47
2023/05/22 07:12:05;;;;;;;5.28;4.05;;;;;;;20.36;71.08;101541.09;4933258;29;20233;-47
2023/05/22 07:14:32;;;;;;;7.65;4.30;;;;;;;20.64;70.83;101550.09;4931038;29;20195;-47
2023/05/22 07:16:57;;;;;;;11.05;4.30;;;;;;;20.31;70.80;101543.25;4950775;29;20221;-46
2023/05/22 07:19:31;;;;;;;7.38;3.80;;;;;;;20.72;70.86;101539.56;4917666;29;20328;-48
2023/05/22 07:22:02;;;;;;;7.40;3.97;;;;;;;21.08;69.47;101540.66;4933311;29;20183;-47
2023/05/22 07:24:29;;;;;;;6.03;3.95;;;;;;;20.98;68.16;101524.97;4932829;29;20202;-48
2023/05/22 07:26:54;;;;;;;4.75;3.95;;;;;;;21.07;68.35;101531.63;4933063;29;20552;-47
2023/05/22 07:29:20;;;;;;;5.40;3.70;;;;;;;20.78;67.97;101533.69;4933481;29;20269;-46
2023/05/22 07:31:48;;;;;;;5.50;4.07;;;;;;;21.03;68.84;101531.94;4932534;29;20276;-46
2023/05/22 07:34:15;;;;;;;7.70;4.15;;;;;;;20.42;68.57;101528.91;4948949;28;20194;-45
2023/05/22 07:36:42;;;;;;;9.88;4.03;;;;;;;21.03;69.39;101543.72;4933372;29;20194;-47
2023/05/22 07:39:08;;;;;;;5.35;3.40;;;;;;;21.51;68.93;101535.75;4917553;29;20223;-49
2023/05/22 07:41:37;;;;;;;6.75;4.22;;;;;;;21.30;67.63;101518.22;4951927;28;20178;-48
2023/05/22 07:44:04;;;;;;;6.43;3.78;;;;;;;21.44;65.71;101515.38;4936038;29;20245;-48
2023/05/22 07:46:36;;;;;;;7.60;3.05;;;;;;;21.44;64.57;101512.66;4936520;29;20506;-47
2023/05/22 07:49:09;;;;;;;6.30;3.38;;;;;;;21.06;63.23;101502.66;4936493;29;20180;-47
2023/05/22 07:51:39;;;;;;;7.03;3.17;;;;;;;21.49;62.39;101495.94;4936292;29;20214;-49
2023/05/22 07:54:06;;;;;;;8.18;3.70;;;;;;;22.16;62.26;101499.06;4935638;29;20222;-49
2023/05/22 07:56:33;;;;;;;6.93;3.13;;;;;;;22.17;61.23;101489.91;4920497;29;20213;-50
2023/05/22 07:58:59;;;;;;;4.35;3.00;;;;;;;22.21;60.55;101491.41;4936521;29;20182;-49
2023/05/22 08:01:25;;;;;;;4.30;3.50;;;;;;;22.10;59.44;101482.28;4952945;29;20197;-50
2023/05/22 08:03:50;;;;;;;4.68;3.30;;;;;;;22.18;59.50;101486.16;4951902;29;20226;-49
2023/05/22 08:06:16;;;;;;;6.32;3.42;;;;;;;22.15;59.72;101486.41;4953567;29;20193;-48
2023/05/22 08:08:42;;;;;;;6.03;3.15;;;;;;;21.76;58.82;101463.03;4936295;29;20269;-46
2023/05/22 08:11:07;;;;;;;5.95;3.72;;;;;;;21.30;59.54;101478.19;4953620;29;20543;-49
2023/05/22 08:13:33;;;;;;;6.97;3.20;;;;;;;21.27;60.68;101481.13;4953059;29;20807;-48
2023/05/22 08:15:58;;;;;;;3.50;3.15;;;;;;;21.44;60.30;101489.97;4935868;29;20205;-49
2023/05/22 08:18:26;;;;;;;4.38;3.17;;;;;;;21.46;59.94;101477.09;4936181;29;20181;-46
2023/05/22 08:20:52;;;;;;;5.85;3.60;;;;;;;22.04;58.97;101478.19;4953311;29;20186;-47
2023/05/22 08:23:18;;;;;;;3.08;2.78;;;;;;;22.25;59.53;101481.13;4951738;29;20555;-46
2023/05/22 08:25:43;;;;;;;4.40;3.40;;;;;;;22.53;58.45;101468.94;4953213;29;20257;-48
2023/05/22 08:28:09;;;;;;;5.25;3.70;;;;;;;22.46;58.20;101459.50;4953459;29;20213;-46
2023/05/22 08:30:36;;;;;;;4.70;3.10;;;;;;;22.77;57.88;101468.00;4953120;29;20285;-48
2023/05/22 08:33:01;;;;;;;5.65;3.50;;;;;;;22.75;58.13;101461.78;4951968;29;20269;-47
2023/05/22 08:35:27;;;;;;;3.33;2.92;;;;;;;22.51;56.36;101449.06;4953209;28;20696;-47
2023/05/22 08:37:52;;;;;;;4.35;3.15;;;;;;;22.47;56.81;101443.97;4949976;29;20630;-48
2023/05/22 08:40:19;;;;;;;6.38;3.20;;;;;;;22.27;56.99;101445.53;4953031;29;20237;-49
2023/05/22 08:42:44;;;;;;;5.78;3.10;;;;;;;22.19;56.38;101433.34;4952066;29;20278;-48
2023/05/22 08:45:10;;;;;;;4.25;3.03;;;;;;;23.19;56.83;101444.53;4933905;29;20202;-49
2023/05/22 08:47:36;;;;;;;6.35;3.28;;;;;;;23.34;54.82;101419.69;4952655;29;20709;-49
2023/05/22 08:50:03;;;;;;;5.15;2.90;;;;;;;23.60;55.73;101432.03;4951588;29;20704;-49
2023/05/22 08:52:49;;;;;;;3.40;2.95;;;;;;;23.72;54.25;101407.38;4950316;28;20194;-48
2023/05/22 08:55:15;;;;;;;3.63;3.03;;;;;;;23.74;54.10;101400.78;4949207;29;20222;-49
2023/05/22 08:57:41;;;;;;;5.15;2.95;;;;;;;23.19;53.68;101403.53;4949394;29;20257;-48
2023/05/22 09:00:08;;;;;;;4.30;3.30;;;;;;;23.62;52.87;101397.22;4931260;29;20277;-49
2023/05/22 09:02:33;;;;;;;6.10;3.70;;;;;;;23.71;53.26;101392.84;4945218;28;20666;-49
2023/05/22 09:05:00;;;;;;;4.07;3.05;;;;;;;23.87;53.18;101402.50;4950443;28;20282;-47
2023/05/22 09:07:28;;;;;;;3.70;3.10;;;;;;;24.04;52.42;101385.50;4933063;29;20194;-49
2023/05/22 09:09:55;;;;;;;4.50;3.05;;;;;;;23.88;51.67;101376.88;4952498;29;20202;-46
2023/05/22 09:12:20;;;;;;;4.53;2.83;;;;;;;23.88;51.81;101368.66;4947588;29;20220;-45
2023/05/22 09:14:46;;;;;;;4.97;3.13;;;;;;;24.08;50.79;101358.75;4952725;29;20241;-46
2023/05/22 09:17:14;;;;;;;4.15;3.20;;;;;;;24.38;51.03;101361.53;4952438;29;20178;-47
2023/05/22 09:19:46;;;;;;;5.20;3.03;;;;;;;24.60;50.14;101346.81;4952151;29;20558;-46
2023/05/22 09:22:13;;;;;;;3.90;2.92;;;;;;;24.55;49.29;101343.59;4952464;29;20720;-46
2023/05/22 09:24:43;;;;;;;3.65;2.90;;;;;;;24.38;47.79;101323.19;4951112;29;20203;-47
2023/05/22 09:27:10;;;;;;;4.30;3.00;;;;;;;23.99;47.99;101357.69;4952053;29;20681;-45
2023/05/22 09:29:51;;;;;;;4.18;2.95;;;;;;;24.15;48.65;101355.31;4952427;29;20201;-44
2023/05/22 09:32:18;;;;;;;3.80;2.90;;;;;;;24.57;48.91;101357.16;4951190;29;20186;-44
2023/05/22 09:34:45;;;;;;;4.13;2.60;;;;;;;24.53;48.42;101342.88;4952478;29;20306;-46
2023/05/22 09:37:12;;;;;;;3.83;2.97;;;;;;;24.97;50.04;101365.44;4952573;29;20187;-45
2023/05/22 09:39:42;;;;;;;4.53;2.85;;;;;;;24.81;48.20;101354.09;4952638;29;20194;-44
2023/05/22 09:42:10;;;;;;;4.57;2.85;;;;;;;24.64;48.46;101340.06;4935095;29;20190;-45
2023/05/22 09:44:36;;;;;;;4.50;3.20;;;;;;;24.89;49.21;101357.03;4952208;29;20930;-45
2023/05/22 09:47:03;;;;;;;6.82;3.67;;;;;;;24.74;49.85;101341.97;4952630;29;20183;-46
2023/05/22 09:49:29;;;;;;;6.90;3.53;;;;;;;24.99;52.50;101388.09;4952234;29;20186;-44
2023/05/22 09:51:56;;;;;;;5.40;3.40;;;;;;;24.47;54.10;101395.47;4952288;29;20407;-44
2023/05/22 09:54:24;;;;;;;3.80;3.33;;;;;;;24.13;53.06;101379.22;4951881;29;20264;-44
2023/05/22 09:56:55;;;;;;;6.35;3.65;;;;;;;24.39;54.42;101390.63;4952087;29;20236;-46
2023/05/22 09:59:25;;;;;;;4.32;3.72;;;;;;;24.45;55.35;101394.72;4952207;29;20665;-44
2023/05/22 10:01:52;;;;;;;10.82;4.10;;;;;;;24.46;56.58;101413.75;4951678;29;20190;-45
2023/05/22 10:04:20;;;;;;;10.73;4.28;;;;;;;24.41;57.97;101420.63;4947744;28;20357;-45
2023/05/22 10:06:50;;;;;;;8.63;4.18;;;;;;;24.66;58.58;101433.06;4952243;29;20178;-46
2023/05/22 10:09:20;;;;;;;6.55;4.10;;;;;;;24.77;57.76;101421.16;4952015;29;20182;-46
2023/05/22 10:11:48;;;;;;;6.30;3.90;;;;;;;24.73;57.78;101417.84;4950458;29;20230;-44
2023/05/22 10:14:15;;;;;;;7.75;3.97;;;;;;;23.13;58.28;101405.91;4950544;29;20210;-44
2023/05/22 10:16:43;;;;;;;7.13;4.95;;;;;;;23.01;59.98;101414.13;4952160;29;20300;-45
2023/05/22 10:19:10;;;;;;;8.35;4.45;;;;;;;23.17;60.28;101424.66;4949743;29;20653;-46
2023/05/22 10:21:40;;;;;;;4.38;3.75;;;;;;;23.45;60.72;101425.97;4951743;29;20193;-45
2023/05/22 10:24:06;;;;;;;9.25;4.63;;;;;;;23.12;60.33;101428.78;4951719;29;20696;-44
2023/05/22 10:26:32;;;;;;;6.80;4.47;;;;;;;22.24;61.51;101435.72;4951706;29;20197;-45
2023/05/22 10:29:10;;;;;;;5.72;4.30;;;;;;;22.49;62.57;101451.03;4951636;29;20190;-45
2023/05/22 10:31:44;;;;;;;6.38;4.43;;;;;;;22.78;62.12;101429.63;4951736;29;20205;-44
2023/05/22 10:34:41;;;;;;;5.35;4.30;;;;;;;23.70;61.29;101436.72;4931646;29;20705;-44
2023/05/22 10:37:24;;;;;;;6.00;4.55;;;;;;;23.18;59.48;101406.41;4951641;29;20201;-44
2023/05/22 10:40:09;;;;;;;9.88;5.03;;;;;;;23.05;60.42;101412.03;4932276;29;20201;-44
2023/05/22 10:42:36;;;;;;;6.38;4.50;;;;;;;23.19;60.79;101410.88;4951260;29;20205;-44
2023/05/22 10:45:05;;;;;;;8.80;4.53;;;;;;;22.91;60.57;101404.88;4950888;29;20233;-45
2023/05/22 10:47:34;;;;;;;10.13;4.60;;;;;;;23.03;60.94;101408.53;4933135;29;20182;-45
2023/05/22 10:50:10;;;;;;;6.38;4.75;;;;;;;22.15;60.53;101404.53;4951345;29;20236;-46
2023/05/22 10:52:37;;;;;;;7.97;4.70;;;;;;;22.74;61.98;101414.47;4948740;29;20205;-42
2023/05/22 10:55:08;;;;;;;7.18;4.72;;;;;;;22.66;61.73;101413.34;4951255;29;20201;-44
2023/05/22 10:57:35;;;;;;;8.63;4.95;;;;;;;21.99;62.32;101406.69;4928025;29;20186;-43
2023/05/22 11:00:08;;;;;;;6.88;4.63;;;;;;;21.90;63.19;101418.31;4951443;29;20174;-45
2023/05/22 11:02:39;;;;;;;6.05;4.38;;;;;;;22.24;63.23;101404.81;4941116;29;20677;-45
2023/05/22 11:05:33;;;;;;;6.40;4.85;;;;;;;22.29;62.37;101406.22;4950269;29;20206;-46
2023/05/22 11:08:17;;;;;;;6.22;4.32;;;;;;;22.68;61.92;101395.84;4948233;29;20240;-43
2023/05/22 11:10:52;;;;;;;7.10;4.78;;;;;;;23.10;61.23;101389.78;4950704;29;20646;-44
2023/05/22 11:13:18;;;;;;;11.15;4.95;;;;;;;22.31;61.45;101396.03;4947706;28;20190;-44
2023/05/22 11:15:47;;;;;;;7.82;4.68;;;;;;;22.46;62.10;101395.81;4935602;29;20245;-47
2023/05/22 11:18:15;;;;;;;8.00;4.55;;;;;;;22.62;62.49;101402.66;4937604;29;20240;-42